sensor_id;sensor_type;location;lat;lon;timestamp;temperature;humidity
58638;DHT22;54976;51.510;7.522;2023-03-30T00:01:50;13.60;90.50
58638;DHT22;54976;51.510;7.522;2023-03-30T00:04:51;13.70;89.90
58638;DHT22;54976;51.510;7.522;2023-03-30T00:07:51;13.70;89.70
58638;DHT22;54976;51.510;7.522;2023-03-30T00:11:02;13.70;89.90
58638;DHT22;54976;51.510;7.522;2023-03-30T00:14:04;13.60;89.60
58638;DHT22;54976;51.510;7.522;2023-03-30T00:17:05;13.70;87.80
58638;DHT22;54976;51.510;7.522;2023-03-30T00:20:08;13.80;88.00
58638;DHT22;54976;51.510;7.522;2023-03-30T00:23:10;13.80;87.60
58638;DHT22;54976;51.510;7.522;2023-03-30T00:26:11;13.80;87.20
58638;DHT22;54976;51.510;7.522;2023-03-30T00:29:12;13.70;87.50
58638;DHT22;54976;51.510;7.522;2023-03-30T00:32:13;13.60;87.80
58638;DHT22;54976;51.510;7.522;2023-03-30T00:35:13;13.60;88.00
58638;DHT22;54976;51.510;7.522;2023-03-30T00:38:17;13.60;88.00
58638;DHT22;54976;51.510;7.522;2023-03-30T00:41:17;13.50;88.20
58638;DHT22;54976;51.510;7.522;2023-03-30T00:51:08;13.80;85.70
58638;DHT22;54976;51.510;7.522;2023-03-30T00:54:13;13.90;85.00
58638;DHT22;54976;51.510;7.522;2023-03-30T00:57:16;13.80;84.70
58638;DHT22;54976;51.510;7.522;2023-03-30T01:00:19;13.90;84.70
58638;DHT22;54976;51.510;7.522;2023-03-30T01:06:26;13.90;83.90
58638;DHT22;54976;51.510;7.522;2023-03-30T01:09:29;13.80;84.10
58638;DHT22;54976;51.510;7.522;2023-03-30T01:12:30;13.80;84.00
58638;DHT22;54976;51.510;7.522;2023-03-30T01:15:34;13.70;83.70
58638;DHT22;54976;51.510;7.522;2023-03-30T01:19:02;13.70;84.10
58638;DHT22;54976;51.510;7.522;2023-03-30T01:26:10;13.60;84.00
58638;DHT22;54976;51.510;7.522;2023-03-30T01:29:49;13.50;84.30
58638;DHT22;54976;51.510;7.522;2023-03-30T01:40:13;13.40;85.50
58638;DHT22;54976;51.510;7.522;2023-03-30T01:46:30;13.60;84.50
58638;DHT22;54976;51.510;7.522;2023-03-30T01:49:43;13.70;83.00
58638;DHT22;54976;51.510;7.522;2023-03-30T01:55:53;14.10;79.70
58638;DHT22;54976;51.510;7.522;2023-03-30T01:59:15;14.20;78.70
58638;DHT22;54976;51.510;7.522;2023-03-30T02:02:19;14.40;77.00
58638;DHT22;54976;51.510;7.522;2023-03-30T02:05:22;14.60;75.10
58638;DHT22;54976;51.510;7.522;2023-03-30T02:08:26;14.70;75.00
58638;DHT22;54976;51.510;7.522;2023-03-30T02:11:29;14.70;74.40
58638;DHT22;54976;51.510;7.522;2023-03-30T02:14:32;14.80;73.60
58638;DHT22;54976;51.510;7.522;2023-03-30T02:17:34;14.80;73.80
58638;DHT22;54976;51.510;7.522;2023-03-30T02:20:35;14.90;72.60
58638;DHT22;54976;51.510;7.522;2023-03-30T02:23:39;14.90;71.80
58638;DHT22;54976;51.510;7.522;2023-03-30T02:26:44;14.90;72.00
58638;DHT22;54976;51.510;7.522;2023-03-30T02:29:45;14.90;71.40
58638;DHT22;54976;51.510;7.522;2023-03-30T02:32:54;15.00;70.70
58638;DHT22;54976;51.510;7.522;2023-03-30T02:35:59;15.10;71.00
58638;DHT22;54976;51.510;7.522;2023-03-30T02:55:18;15.30;68.00
58638;DHT22;54976;51.510;7.522;2023-03-30T02:58:32;15.30;68.20
58638;DHT22;54976;51.510;7.522;2023-03-30T03:04:44;15.00;69.40
58638;DHT22;54976;51.510;7.522;2023-03-30T03:07:46;15.00;69.70
58638;DHT22;54976;51.510;7.522;2023-03-30T03:10:47;15.20;68.70
58638;DHT22;54976;51.510;7.522;2023-03-30T03:13:49;15.10;69.00
58638;DHT22;54976;51.510;7.522;2023-03-30T03:16:49;14.90;69.60
58638;DHT22;54976;51.510;7.522;2023-03-30T03:19:50;15.00;69.40
58638;DHT22;54976;51.510;7.522;2023-03-30T03:22:50;15.00;69.40
58638;DHT22;54976;51.510;7.522;2023-03-30T03:25:51;14.90;69.60
58638;DHT22;54976;51.510;7.522;2023-03-30T03:28:52;15.00;69.20
58638;DHT22;54976;51.510;7.522;2023-03-30T03:31:53;14.90;69.20
58638;DHT22;54976;51.510;7.522;2023-03-30T03:34:54;14.90;69.40
58638;DHT22;54976;51.510;7.522;2023-03-30T03:37:54;15.00;69.20
58638;DHT22;54976;51.510;7.522;2023-03-30T03:40:56;15.00;69.50
58638;DHT22;54976;51.510;7.522;2023-03-30T03:43:57;14.90;70.20
58638;DHT22;54976;51.510;7.522;2023-03-30T03:46:58;15.00;69.30
58638;DHT22;54976;51.510;7.522;2023-03-30T03:49:58;15.00;69.20
58638;DHT22;54976;51.510;7.522;2023-03-30T03:53:03;14.90;69.20
58638;DHT22;54976;51.510;7.522;2023-03-30T03:56:03;15.10;68.90
58638;DHT22;54976;51.510;7.522;2023-03-30T03:59:04;15.30;68.20
58638;DHT22;54976;51.510;7.522;2023-03-30T04:02:05;15.40;67.00
58638;DHT22;54976;51.510;7.522;2023-03-30T04:05:06;15.50;66.40
58638;DHT22;54976;51.510;7.522;2023-03-30T04:08:07;15.60;65.80
58638;DHT22;54976;51.510;7.522;2023-03-30T04:11:11;15.60;66.00
58638;DHT22;54976;51.510;7.522;2023-03-30T04:14:12;15.70;65.80
58638;DHT22;54976;51.510;7.522;2023-03-30T04:17:12;15.70;66.40
58638;DHT22;54976;51.510;7.522;2023-03-30T04:20:15;15.70;65.60
58638;DHT22;54976;51.510;7.522;2023-03-30T04:23:16;15.80;65.00
58638;DHT22;54976;51.510;7.522;2023-03-30T04:26:21;15.80;64.70
58638;DHT22;54976;51.510;7.522;2023-03-30T04:29:22;15.90;64.30
58638;DHT22;54976;51.510;7.522;2023-03-30T04:32:23;15.90;64.90
58638;DHT22;54976;51.510;7.522;2023-03-30T04:35:24;15.70;66.00
58638;DHT22;54976;51.510;7.522;2023-03-30T04:38:24;15.60;66.00
58638;DHT22;54976;51.510;7.522;2023-03-30T04:41:30;15.60;66.00
58638;DHT22;54976;51.510;7.522;2023-03-30T04:44:35;15.70;66.00
58638;DHT22;54976;51.510;7.522;2023-03-30T04:47:35;15.90;64.80
58638;DHT22;54976;51.510;7.522;2023-03-30T04:50:36;15.90;64.30
58638;DHT22;54976;51.510;7.522;2023-03-30T04:53:37;15.90;64.50
58638;DHT22;54976;51.510;7.522;2023-03-30T04:56:37;16.00;64.10
58638;DHT22;54976;51.510;7.522;2023-03-30T04:59:39;16.00;64.00
58638;DHT22;54976;51.510;7.522;2023-03-30T05:02:40;16.10;63.60
58638;DHT22;54976;51.510;7.522;2023-03-30T05:05:41;16.20;63.80
58638;DHT22;54976;51.510;7.522;2023-03-30T05:08:41;16.00;64.20
58638;DHT22;54976;51.510;7.522;2023-03-30T05:11:42;15.90;64.90
58638;DHT22;54976;51.510;7.522;2023-03-30T05:14:42;15.90;65.20
58638;DHT22;54976;51.510;7.522;2023-03-30T05:17:43;15.80;66.30
58638;DHT22;54976;51.510;7.522;2023-03-30T05:20:44;15.80;66.90
58638;DHT22;54976;51.510;7.522;2023-03-30T05:23:44;15.60;67.80
58638;DHT22;54976;51.510;7.522;2023-03-30T05:26:45;15.70;66.70
58638;DHT22;54976;51.510;7.522;2023-03-30T05:29:45;15.60;68.30
58638;DHT22;54976;51.510;7.522;2023-03-30T05:32:46;15.50;69.20
58638;DHT22;54976;51.510;7.522;2023-03-30T05:35:47;15.40;69.60
58638;DHT22;54976;51.510;7.522;2023-03-30T05:38:47;15.30;70.40
58638;DHT22;54976;51.510;7.522;2023-03-30T05:41:48;15.30;70.80
58638;DHT22;54976;51.510;7.522;2023-03-30T05:44:48;15.30;70.70
58638;DHT22;54976;51.510;7.522;2023-03-30T05:47:49;15.50;69.60
58638;DHT22;54976;51.510;7.522;2023-03-30T05:50:51;15.70;68.70
58638;DHT22;54976;51.510;7.522;2023-03-30T05:53:52;15.70;68.70
58638;DHT22;54976;51.510;7.522;2023-03-30T05:56:52;15.70;68.60
58638;DHT22;54976;51.510;7.522;2023-03-30T05:59:53;15.80;68.30
58638;DHT22;54976;51.510;7.522;2023-03-30T06:02:54;15.90;68.00
58638;DHT22;54976;51.510;7.522;2023-03-30T06:05:54;15.90;68.20
58638;DHT22;54976;51.510;7.522;2023-03-30T06:08:55;15.90;68.00
58638;DHT22;54976;51.510;7.522;2023-03-30T06:11:55;15.80;68.70
58638;DHT22;54976;51.510;7.522;2023-03-30T06:14:56;15.70;69.90
58638;DHT22;54976;51.510;7.522;2023-03-30T06:17:57;15.80;69.10
58638;DHT22;54976;51.510;7.522;2023-03-30T06:21:04;15.80;69.00
58638;DHT22;54976;51.510;7.522;2023-03-30T06:24:07;15.80;69.70
58638;DHT22;54976;51.510;7.522;2023-03-30T06:27:08;15.80;69.30
58638;DHT22;54976;51.510;7.522;2023-03-30T06:30:09;15.80;69.10
58638;DHT22;54976;51.510;7.522;2023-03-30T06:33:10;15.80;68.90
58638;DHT22;54976;51.510;7.522;2023-03-30T06:36:12;15.80;69.50
58638;DHT22;54976;51.510;7.522;2023-03-30T06:39:13;15.80;69.30
58638;DHT22;54976;51.510;7.522;2023-03-30T06:42:14;15.80;69.40
58638;DHT22;54976;51.510;7.522;2023-03-30T06:45:15;15.80;69.80
58638;DHT22;54976;51.510;7.522;2023-03-30T06:48:15;15.90;68.70
58638;DHT22;54976;51.510;7.522;2023-03-30T06:51:16;15.90;68.50
58638;DHT22;54976;51.510;7.522;2023-03-30T06:54:16;15.90;68.60
58638;DHT22;54976;51.510;7.522;2023-03-30T06:57:19;15.90;68.20
58638;DHT22;54976;51.510;7.522;2023-03-30T07:00:20;15.80;68.70
58638;DHT22;54976;51.510;7.522;2023-03-30T07:03:21;15.80;69.20
58638;DHT22;54976;51.510;7.522;2023-03-30T07:06:22;15.70;69.20
58638;DHT22;54976;51.510;7.522;2023-03-30T07:09:24;15.90;69.10
58638;DHT22;54976;51.510;7.522;2023-03-30T07:12:24;16.30;67.80
58638;DHT22;54976;51.510;7.522;2023-03-30T07:15:25;16.80;67.10
58638;DHT22;54976;51.510;7.522;2023-03-30T07:18:26;17.10;63.90
58638;DHT22;54976;51.510;7.522;2023-03-30T07:21:26;17.40;63.00
58638;DHT22;54976;51.510;7.522;2023-03-30T07:24:27;17.50;62.40
58638;DHT22;54976;51.510;7.522;2023-03-30T07:27:29;17.90;61.00
58638;DHT22;54976;51.510;7.522;2023-03-30T07:30:29;17.70;60.90
58638;DHT22;54976;51.510;7.522;2023-03-30T07:33:31;17.60;61.50
58638;DHT22;54976;51.510;7.522;2023-03-30T07:36:31;17.40;61.30
58638;DHT22;54976;51.510;7.522;2023-03-30T07:39:32;17.40;60.20
58638;DHT22;54976;51.510;7.522;2023-03-30T07:42:33;17.20;61.40
58638;DHT22;54976;51.510;7.522;2023-03-30T07:45:33;17.10;61.10
58638;DHT22;54976;51.510;7.522;2023-03-30T07:48:34;17.10;61.20
58638;DHT22;54976;51.510;7.522;2023-03-30T07:51:36;17.10;60.80
58638;DHT22;54976;51.510;7.522;2023-03-30T07:54:36;16.90;63.50
58638;DHT22;54976;51.510;7.522;2023-03-30T07:57:37;16.60;63.70
58638;DHT22;54976;51.510;7.522;2023-03-30T08:00:38;16.40;64.00
58638;DHT22;54976;51.510;7.522;2023-03-30T08:03:39;16.10;66.60
58638;DHT22;54976;51.510;7.522;2023-03-30T08:06:39;16.00;71.40
58638;DHT22;54976;51.510;7.522;2023-03-30T08:09:41;15.80;72.50
58638;DHT22;54976;51.510;7.522;2023-03-30T08:12:41;15.80;72.10
58638;DHT22;54976;51.510;7.522;2023-03-30T08:15:42;15.90;72.00
58638;DHT22;54976;51.510;7.522;2023-03-30T08:18:43;15.90;73.00
58638;DHT22;54976;51.510;7.522;2023-03-30T08:21:43;16.00;72.30
58638;DHT22;54976;51.510;7.522;2023-03-30T08:24:44;16.10;72.60
58638;DHT22;54976;51.510;7.522;2023-03-30T08:27:44;16.40;71.90
58638;DHT22;54976;51.510;7.522;2023-03-30T08:30:46;16.80;71.20
58638;DHT22;54976;51.510;7.522;2023-03-30T08:33:47;17.20;67.50
58638;DHT22;54976;51.510;7.522;2023-03-30T08:36:49;17.10;67.20
58638;DHT22;54976;51.510;7.522;2023-03-30T08:39:49;17.00;67.60
58638;DHT22;54976;51.510;7.522;2023-03-30T08:46:13;16.60;65.90
58638;DHT22;54976;51.510;7.522;2023-03-30T08:49:17;16.50;64.70
58638;DHT22;54976;51.510;7.522;2023-03-30T08:52:22;16.40;65.30
58638;DHT22;54976;51.510;7.522;2023-03-30T08:55:26;16.30;65.80
58638;DHT22;54976;51.510;7.522;2023-03-30T08:58:44;16.20;66.80
58638;DHT22;54976;51.510;7.522;2023-03-30T09:01:55;16.20;67.20
58638;DHT22;54976;51.510;7.522;2023-03-30T09:05:02;16.30;67.40
58638;DHT22;54976;51.510;7.522;2023-03-30T09:08:17;16.40;66.70
58638;DHT22;54976;51.510;7.522;2023-03-30T09:11:33;16.60;66.40
58638;DHT22;54976;51.510;7.522;2023-03-30T09:14:42;17.00;65.60
58638;DHT22;54976;51.510;7.522;2023-03-30T09:21:02;17.80;60.50
58638;DHT22;54976;51.510;7.522;2023-03-30T09:24:11;18.00;59.80
58638;DHT22;54976;51.510;7.522;2023-03-30T09:27:26;18.20;59.20
58638;DHT22;54976;51.510;7.522;2023-03-30T09:30:42;18.10;58.90
58638;DHT22;54976;51.510;7.522;2023-03-30T09:33:54;17.90;57.90
58638;DHT22;54976;51.510;7.522;2023-03-30T09:37:12;18.10;57.70
58638;DHT22;54976;51.510;7.522;2023-03-30T09:40:59;18.60;58.00
58638;DHT22;54976;51.510;7.522;2023-03-30T09:44:13;19.10;56.60
58638;DHT22;54976;51.510;7.522;2023-03-30T09:50:26;18.90;56.20
58638;DHT22;54976;51.510;7.522;2023-03-30T09:53:28;18.50;56.90
58638;DHT22;54976;51.510;7.522;2023-03-30T09:56:42;18.40;57.30
58638;DHT22;54976;51.510;7.522;2023-03-30T09:59:46;18.40;56.00
58638;DHT22;54976;51.510;7.522;2023-03-30T10:02:54;19.30;54.90
58638;DHT22;54976;51.510;7.522;2023-03-30T10:06:02;20.20;53.40
58638;DHT22;54976;51.510;7.522;2023-03-30T10:09:05;19.90;51.80
58638;DHT22;54976;51.510;7.522;2023-03-30T10:12:11;19.20;52.30
58638;DHT22;54976;51.510;7.522;2023-03-30T10:15:17;18.30;54.20
58638;DHT22;54976;51.510;7.522;2023-03-30T10:18:21;17.60;54.60
58638;DHT22;54976;51.510;7.522;2023-03-30T10:21:23;17.10;56.10
58638;DHT22;54976;51.510;7.522;2023-03-30T10:24:29;16.40;57.50
58638;DHT22;54976;51.510;7.522;2023-03-30T10:27:33;16.10;59.50
58638;DHT22;54976;51.510;7.522;2023-03-30T10:30:35;15.60;62.10
58638;DHT22;54976;51.510;7.522;2023-03-30T10:33:41;15.30;66.30
58638;DHT22;54976;51.510;7.522;2023-03-30T10:36:42;15.00;69.70
58638;DHT22;54976;51.510;7.522;2023-03-30T10:39:47;14.80;72.10
58638;DHT22;54976;51.510;7.522;2023-03-30T10:42:53;14.60;83.70
58638;DHT22;54976;51.510;7.522;2023-03-30T10:45:56;13.90;90.80
58638;DHT22;54976;51.510;7.522;2023-03-30T10:55:42;13.00;98.70
58638;DHT22;54976;51.510;7.522;2023-03-30T11:05:38;13.60;99.90
58638;DHT22;54976;51.510;7.522;2023-03-30T11:08:42;14.20;97.20
58638;DHT22;54976;51.510;7.522;2023-03-30T11:12:06;14.60;97.90
58638;DHT22;54976;51.510;7.522;2023-03-30T11:25:51;15.90;92.20
58638;DHT22;54976;51.510;7.522;2023-03-30T11:35:52;16.20;90.00
58638;DHT22;54976;51.510;7.522;2023-03-30T11:39:00;16.60;90.80
58638;DHT22;54976;51.510;7.522;2023-03-30T11:42:13;16.80;85.30
58638;DHT22;54976;51.510;7.522;2023-03-30T11:45:40;16.60;80.80
58638;DHT22;54976;51.510;7.522;2023-03-30T11:56:11;16.40;79.40
58638;DHT22;54976;51.510;7.522;2023-03-30T12:02:48;17.20;76.10
58638;DHT22;54976;51.510;7.522;2023-03-30T12:05:46;17.70;73.60
58638;DHT22;54976;51.510;7.522;2023-03-30T12:12:33;17.90;68.40
58638;DHT22;54976;51.510;7.522;2023-03-30T12:15:49;17.30;69.80
58638;DHT22;54976;51.510;7.522;2023-03-30T12:22:09;16.60;71.10
58638;DHT22;54976;51.510;7.522;2023-03-30T12:25:46;17.10;72.00
58638;DHT22;54976;51.510;7.522;2023-03-30T12:38:43;15.90;77.30
58638;DHT22;54976;51.510;7.522;2023-03-30T12:41:48;15.20;90.70
58638;DHT22;54976;51.510;7.522;2023-03-30T12:57:56;13.80;97.10
58638;DHT22;54976;51.510;7.522;2023-03-30T13:01:09;13.30;97.10
58638;DHT22;54976;51.510;7.522;2023-03-30T13:04:17;13.20;97.20
58638;DHT22;54976;51.510;7.522;2023-03-30T13:07:24;13.10;98.60
58638;DHT22;54976;51.510;7.522;2023-03-30T13:20:14;14.30;93.50
58638;DHT22;54976;51.510;7.522;2023-03-30T13:26:25;13.80;95.10
58638;DHT22;54976;51.510;7.522;2023-03-30T13:29:28;13.60;94.00
58638;DHT22;54976;51.510;7.522;2023-03-30T13:36:11;13.80;95.60
58638;DHT22;54976;51.510;7.522;2023-03-30T13:39:36;14.10;95.20
58638;DHT22;54976;51.510;7.522;2023-03-30T13:43:07;13.80;96.50
58638;DHT22;54976;51.510;7.522;2023-03-30T13:52:43;15.90;93.30
58638;DHT22;54976;51.510;7.522;2023-03-30T13:55:47;16.60;90.80
58638;DHT22;54976;51.510;7.522;2023-03-30T14:02:05;18.20;78.60
58638;DHT22;54976;51.510;7.522;2023-03-30T14:05:13;18.70;78.90
58638;DHT22;54976;51.510;7.522;2023-03-30T14:08:14;19.30;80.40
58638;DHT22;54976;51.510;7.522;2023-03-30T14:11:17;20.00;71.80
58638;DHT22;54976;51.510;7.522;2023-03-30T14:17:27;20.70;65.00
58638;DHT22;54976;51.510;7.522;2023-03-30T14:23:56;20.70;59.70
58638;DHT22;54976;51.510;7.522;2023-03-30T14:30:18;20.50;57.70
58638;DHT22;54976;51.510;7.522;2023-03-30T14:33:19;19.80;59.10
58638;DHT22;54976;51.510;7.522;2023-03-30T14:36:20;18.90;60.40
58638;DHT22;54976;51.510;7.522;2023-03-30T14:39:22;19.10;65.80
58638;DHT22;54976;51.510;7.522;2023-03-30T14:42:25;19.50;60.90
58638;DHT22;54976;51.510;7.522;2023-03-30T14:45:26;18.80;61.20
58638;DHT22;54976;51.510;7.522;2023-03-30T14:48:32;18.40;64.80
58638;DHT22;54976;51.510;7.522;2023-03-30T14:51:40;18.40;65.00
58638;DHT22;54976;51.510;7.522;2023-03-30T14:54:41;18.70;66.60
58638;DHT22;54976;51.510;7.522;2023-03-30T14:57:42;18.10;65.80
58638;DHT22;54976;51.510;7.522;2023-03-30T15:00:43;18.00;63.40
58638;DHT22;54976;51.510;7.522;2023-03-30T15:03:46;17.80;64.90
58638;DHT22;54976;51.510;7.522;2023-03-30T15:06:47;17.60;64.40
58638;DHT22;54976;51.510;7.522;2023-03-30T15:09:55;16.90;65.90
58638;DHT22;54976;51.510;7.522;2023-03-30T15:12:56;16.40;65.90
58638;DHT22;54976;51.510;7.522;2023-03-30T15:15:58;16.00;68.60
58638;DHT22;54976;51.510;7.522;2023-03-30T15:19:08;15.80;70.50
58638;DHT22;54976;51.510;7.522;2023-03-30T15:22:26;15.50;74.90
58638;DHT22;54976;51.510;7.522;2023-03-30T15:25:33;15.20;82.60
58638;DHT22;54976;51.510;7.522;2023-03-30T15:28:43;14.70;91.50
58638;DHT22;54976;51.510;7.522;2023-03-30T15:31:45;14.30;93.40
58638;DHT22;54976;51.510;7.522;2023-03-30T15:38:16;14.50;94.70
58638;DHT22;54976;51.510;7.522;2023-03-30T15:41:19;14.50;96.30
58638;DHT22;54976;51.510;7.522;2023-03-30T15:44:21;15.00;94.10
58638;DHT22;54976;51.510;7.522;2023-03-30T15:47:22;15.60;93.30
58638;DHT22;54976;51.510;7.522;2023-03-30T15:50:23;15.50;93.30
58638;DHT22;54976;51.510;7.522;2023-03-30T15:53:33;15.20;92.70
58638;DHT22;54976;51.510;7.522;2023-03-30T15:56:40;14.90;94.40
58638;DHT22;54976;51.510;7.522;2023-03-30T15:59:49;14.70;94.80
58638;DHT22;54976;51.510;7.522;2023-03-30T16:02:55;14.50;95.20
58638;DHT22;54976;51.510;7.522;2023-03-30T16:05:59;14.30;97.00
58638;DHT22;54976;51.510;7.522;2023-03-30T16:08:59;14.20;96.40
58638;DHT22;54976;51.510;7.522;2023-03-30T16:12:00;14.00;97.70
58638;DHT22;54976;51.510;7.522;2023-03-30T16:15:00;13.90;98.90
58638;DHT22;54976;51.510;7.522;2023-03-30T16:18:01;13.90;98.60
58638;DHT22;54976;51.510;7.522;2023-03-30T16:21:02;13.80;98.70
58638;DHT22;54976;51.510;7.522;2023-03-30T16:24:04;14.10;97.80
58638;DHT22;54976;51.510;7.522;2023-03-30T16:27:05;14.40;97.30
58638;DHT22;54976;51.510;7.522;2023-03-30T16:33:15;14.50;97.10
58638;DHT22;54976;51.510;7.522;2023-03-30T16:36:18;14.50;97.40
58638;DHT22;54976;51.510;7.522;2023-03-30T16:39:24;14.50;97.30
58638;DHT22;54976;51.510;7.522;2023-03-30T16:42:26;14.40;97.10
58638;DHT22;54976;51.510;7.522;2023-03-30T16:45:27;14.30;97.80
58638;DHT22;54976;51.510;7.522;2023-03-30T16:48:28;14.20;97.50
58638;DHT22;54976;51.510;7.522;2023-03-30T16:51:28;14.20;98.10
58638;DHT22;54976;51.510;7.522;2023-03-30T16:54:29;14.10;98.70
58638;DHT22;54976;51.510;7.522;2023-03-30T16:57:29;14.10;98.60
58638;DHT22;54976;51.510;7.522;2023-03-30T17:00:35;14.10;99.00
58638;DHT22;54976;51.510;7.522;2023-03-30T17:03:36;13.90;99.50
58638;DHT22;54976;51.510;7.522;2023-03-30T17:06:37;13.70;99.70
58638;DHT22;54976;51.510;7.522;2023-03-30T17:09:37;13.50;99.90
58638;DHT22;54976;51.510;7.522;2023-03-30T17:12:38;13.30;99.90
58638;DHT22;54976;51.510;7.522;2023-03-30T17:15:39;13.20;99.90
58638;DHT22;54976;51.510;7.522;2023-03-30T17:18:40;13.20;99.90
58638;DHT22;54976;51.510;7.522;2023-03-30T17:21:41;13.30;99.90
58638;DHT22;54976;51.510;7.522;2023-03-30T17:24:42;13.20;99.90
58638;DHT22;54976;51.510;7.522;2023-03-30T17:27:43;13.10;99.90
58638;DHT22;54976;51.510;7.522;2023-03-30T17:30:44;13.10;99.90
58638;DHT22;54976;51.510;7.522;2023-03-30T17:33:45;13.10;99.90
58638;DHT22;54976;51.510;7.522;2023-03-30T17:36:46;13.10;99.90
58638;DHT22;54976;51.510;7.522;2023-03-30T17:39:46;13.10;99.90
58638;DHT22;54976;51.510;7.522;2023-03-30T17:42:47;13.00;99.90
58638;DHT22;54976;51.510;7.522;2023-03-30T17:45:48;13.20;99.50
58638;DHT22;54976;51.510;7.522;2023-03-30T17:48:49;13.20;99.90
58638;DHT22;54976;51.510;7.522;2023-03-30T17:51:50;13.10;99.90
58638;DHT22;54976;51.510;7.522;2023-03-30T17:54:53;13.00;99.90
58638;DHT22;54976;51.510;7.522;2023-03-30T17:57:54;13.10;99.90
58638;DHT22;54976;51.510;7.522;2023-03-30T18:00:54;12.90;99.90
58638;DHT22;54976;51.510;7.522;2023-03-30T18:03:55;12.90;99.90
58638;DHT22;54976;51.510;7.522;2023-03-30T18:06:56;12.90;99.90
58638;DHT22;54976;51.510;7.522;2023-03-30T18:09:56;12.80;99.90
58638;DHT22;54976;51.510;7.522;2023-03-30T18:12:57;12.80;99.90
58638;DHT22;54976;51.510;7.522;2023-03-30T18:16:00;12.70;99.90
58638;DHT22;54976;51.510;7.522;2023-03-30T18:19:01;12.70;99.90
58638;DHT22;54976;51.510;7.522;2023-03-30T18:22:02;12.70;99.90
58638;DHT22;54976;51.510;7.522;2023-03-30T18:25:03;12.70;99.90
58638;DHT22;54976;51.510;7.522;2023-03-30T18:28:05;12.70;99.90
58638;DHT22;54976;51.510;7.522;2023-03-30T18:31:10;12.70;99.90
58638;DHT22;54976;51.510;7.522;2023-03-30T18:34:10;12.60;99.90
58638;DHT22;54976;51.510;7.522;2023-03-30T18:37:11;12.60;99.90
58638;DHT22;54976;51.510;7.522;2023-03-30T18:40:20;12.60;99.90
58638;DHT22;54976;51.510;7.522;2023-03-30T18:43:21;12.60;99.90
58638;DHT22;54976;51.510;7.522;2023-03-30T18:46:21;12.60;99.90
58638;DHT22;54976;51.510;7.522;2023-03-30T18:49:22;12.50;99.90
58638;DHT22;54976;51.510;7.522;2023-03-30T18:52:23;12.40;99.90
58638;DHT22;54976;51.510;7.522;2023-03-30T18:55:24;12.40;99.90
58638;DHT22;54976;51.510;7.522;2023-03-30T18:58:30;12.50;99.90
58638;DHT22;54976;51.510;7.522;2023-03-30T19:01:32;12.40;99.90
58638;DHT22;54976;51.510;7.522;2023-03-30T19:04:33;12.40;99.90
58638;DHT22;54976;51.510;7.522;2023-03-30T19:07:33;12.30;99.90
58638;DHT22;54976;51.510;7.522;2023-03-30T19:10:36;12.30;99.90
58638;DHT22;54976;51.510;7.522;2023-03-30T19:13:38;12.10;99.90
58638;DHT22;54976;51.510;7.522;2023-03-30T19:16:38;12.00;99.90
58638;DHT22;54976;51.510;7.522;2023-03-30T19:19:39;12.00;99.90
58638;DHT22;54976;51.510;7.522;2023-03-30T19:22:39;11.90;99.90
58638;DHT22;54976;51.510;7.522;2023-03-30T19:25:41;12.00;99.90
58638;DHT22;54976;51.510;7.522;2023-03-30T19:28:42;11.80;99.90
58638;DHT22;54976;51.510;7.522;2023-03-30T19:31:43;11.80;99.90
58638;DHT22;54976;51.510;7.522;2023-03-30T19:34:43;11.90;99.90
58638;DHT22;54976;51.510;7.522;2023-03-30T19:37:44;12.10;99.90
58638;DHT22;54976;51.510;7.522;2023-03-30T19:40:46;12.10;99.90
58638;DHT22;54976;51.510;7.522;2023-03-30T19:43:46;12.10;99.90
58638;DHT22;54976;51.510;7.522;2023-03-30T19:46:49;12.10;99.90
58638;DHT22;54976;51.510;7.522;2023-03-30T19:49:50;12.10;99.90
58638;DHT22;54976;51.510;7.522;2023-03-30T19:52:50;12.10;99.90
58638;DHT22;54976;51.510;7.522;2023-03-30T19:55:51;12.10;99.90
58638;DHT22;54976;51.510;7.522;2023-03-30T19:58:52;12.10;99.90
58638;DHT22;54976;51.510;7.522;2023-03-30T20:01:53;12.20;99.90
58638;DHT22;54976;51.510;7.522;2023-03-30T20:04:54;12.30;99.90
58638;DHT22;54976;51.510;7.522;2023-03-30T20:07:55;12.50;99.90
58638;DHT22;54976;51.510;7.522;2023-03-30T20:10:56;12.40;99.90
58638;DHT22;54976;51.510;7.522;2023-03-30T20:13:57;12.40;99.90
58638;DHT22;54976;51.510;7.522;2023-03-30T20:16:58;12.50;99.90
58638;DHT22;54976;51.510;7.522;2023-03-30T20:19:59;12.60;99.90
58638;DHT22;54976;51.510;7.522;2023-03-30T20:23:06;12.50;99.90
58638;DHT22;54976;51.510;7.522;2023-03-30T20:26:06;12.60;99.90
58638;DHT22;54976;51.510;7.522;2023-03-30T20:29:07;12.60;99.60
58638;DHT22;54976;51.510;7.522;2023-03-30T20:32:08;12.60;99.90
58638;DHT22;54976;51.510;7.522;2023-03-30T20:35:09;12.70;99.00
58638;DHT22;54976;51.510;7.522;2023-03-30T20:38:10;12.70;98.60
58638;DHT22;54976;51.510;7.522;2023-03-30T20:41:11;12.90;98.30
58638;DHT22;54976;51.510;7.522;2023-03-30T20:44:13;12.80;98.70
58638;DHT22;54976;51.510;7.522;2023-03-30T20:47:17;12.80;98.60
58638;DHT22;54976;51.510;7.522;2023-03-30T20:50:22;12.90;98.50
58638;DHT22;54976;51.510;7.522;2023-03-30T20:53:23;12.90;97.70
58638;DHT22;54976;51.510;7.522;2023-03-30T20:56:24;12.90;97.70
58638;DHT22;54976;51.510;7.522;2023-03-30T20:59:27;12.80;98.00
58638;DHT22;54976;51.510;7.522;2023-03-30T21:02:27;12.70;98.70
58638;DHT22;54976;51.510;7.522;2023-03-30T21:05:28;12.50;99.00
58638;DHT22;54976;51.510;7.522;2023-03-30T21:08:29;12.60;98.20
58638;DHT22;54976;51.510;7.522;2023-03-30T21:11:36;12.60;98.40
58638;DHT22;54976;51.510;7.522;2023-03-30T21:14:38;12.60;98.60
58638;DHT22;54976;51.510;7.522;2023-03-30T21:17:38;12.50;98.40
58638;DHT22;54976;51.510;7.522;2023-03-30T21:20:39;12.60;98.30
58638;DHT22;54976;51.510;7.522;2023-03-30T21:23:40;12.60;98.00
58638;DHT22;54976;51.510;7.522;2023-03-30T21:26:41;12.70;97.10
58638;DHT22;54976;51.510;7.522;2023-03-30T21:29:41;12.60;97.80
58638;DHT22;54976;51.510;7.522;2023-03-30T21:32:42;12.50;97.30
58638;DHT22;54976;51.510;7.522;2023-03-30T21:35:47;12.50;97.20
58638;DHT22;54976;51.510;7.522;2023-03-30T21:38:48;12.50;97.00
58638;DHT22;54976;51.510;7.522;2023-03-30T21:41:48;12.40;97.10
58638;DHT22;54976;51.510;7.522;2023-03-30T21:44:49;12.40;97.10
58638;DHT22;54976;51.510;7.522;2023-03-30T21:47:49;12.30;97.50
58638;DHT22;54976;51.510;7.522;2023-03-30T21:51:00;12.30;96.90
58638;DHT22;54976;51.510;7.522;2023-03-30T21:54:01;12.30;96.80
58638;DHT22;54976;51.510;7.522;2023-03-30T21:57:01;12.30;96.80
58638;DHT22;54976;51.510;7.522;2023-03-30T22:00:03;12.40;96.90
58638;DHT22;54976;51.510;7.522;2023-03-30T22:03:06;12.20;97.50
58638;DHT22;54976;51.510;7.522;2023-03-30T22:06:09;12.10;97.50
58638;DHT22;54976;51.510;7.522;2023-03-30T22:09:10;12.00;97.90